Time;durP1;ratioP1;P1;durP2;ratioP2;P2;SDS_P1;SDS_P2;PMS_P1;PMS_P2;Temp;Humidity;BMP_temperature;BMP_pressure;BME280_temperature;BME280_humidity;BME280_pressure;Samples;Min_cycle;Max_cycle;Signal;HPM_P1;HPM_P2
2021/11/27 00:00:44;;;;;;;16.70;11.38;;;4.40;99.70;;;;;;5056734;28;20021;-60
2021/11/27 00:03:11;;;;;;;18.02;12.02;;;4.30;99.80;;;;;;5074734;28;20040;-60
2021/11/27 00:05:38;;;;;;;16.65;11.88;;;4.20;99.90;;;;;;5074720;28;20043;-60
2021/11/27 00:08:07;;;;;;;17.98;12.05;;;4.20;99.70;;;;;;5074847;28;20029;-58
2021/11/27 00:10:35;;;;;;;17.92;12.02;;;4.20;99.80;;;;;;5074673;28;20120;-60
2021/11/27 00:13:04;;;;;;;19.65;12.90;;;4.20;99.90;;;;;;5074965;28;20033;-59
2021/11/27 00:15:31;;;;;;;18.95;13.07;;;4.20;99.80;;;;;;5073418;28;20044;-60
2021/11/27 00:17:58;;;;;;;17.48;13.68;;;4.20;99.90;;;;;;5074340;28;20492;-55
2021/11/27 00:20:28;;;;;;;17.85;12.05;;;4.30;99.60;;;;;;5073221;28;20448;-60
2021/11/27 00:22:54;;;;;;;22.90;13.25;;;4.20;99.70;;;;;;5074160;28;20036;-58
2021/11/27 00:25:20;;;;;;;19.63;12.95;;;4.20;99.60;;;;;;5077386;28;20403;-61
2021/11/27 00:27:46;;;;;;;19.92;14.10;;;4.10;99.70;;;;;;5070321;28;20031;-57
2021/11/27 00:30:16;;;;;;;20.65;13.60;;;4.00;99.80;;;;;;5073578;28;20052;-59
2021/11/27 00:32:42;;;;;;;20.45;13.48;;;4.00;99.80;;;;;;5073311;28;20094;-55
2021/11/27 00:35:10;;;;;;;20.52;12.55;;;4.00;99.90;;;;;;5072899;28;20495;-58
2021/11/27 00:37:37;;;;;;;21.52;13.68;;;4.00;99.80;;;;;;5073424;28;20044;-58
2021/11/27 00:40:10;;;;;;;20.42;13.25;;;4.00;99.80;;;;;;5072722;28;20040;-58
2021/11/27 00:42:36;;;;;;;20.50;14.13;;;4.10;99.60;;;;;;5039481;28;20051;-58
2021/11/27 00:45:10;;;;;;;21.13;14.05;;;4.10;99.80;;;;;;5073736;28;20496;-55
2021/11/27 00:47:41;;;;;;;22.00;13.90;;;3.90;99.90;;;;;;5058775;28;20035;-59
2021/11/27 00:50:08;;;;;;;23.85;14.88;;;3.90;99.90;;;;;;5072998;28;20028;-54
2021/11/27 00:52:34;;;;;;;23.48;14.75;;;3.90;99.90;;;;;;5073520;28;20024;-60
2021/11/27 00:55:00;;;;;;;21.63;13.85;;;3.90;99.90;;;;;;5073321;28;20035;-58
2021/11/27 00:57:26;;;;;;;22.17;14.02;;;3.90;99.90;;;;;;5071890;28;20442;-57
2021/11/27 00:59:51;;;;;;;21.15;15.00;;;3.90;99.90;;;;;;5073594;28;20044;-60
2021/11/27 01:02:17;;;;;;;19.75;14.52;;;3.90;99.90;;;;;;5073779;28;20063;-57
2021/11/27 01:04:43;;;;;;;19.92;14.10;;;3.90;99.90;;;;;;5073264;28;20132;-56
2021/11/27 01:07:09;;;;;;;22.50;14.35;;;3.80;99.80;;;;;;5073738;28;20449;-59
2021/11/27 01:09:35;;;;;;;22.48;14.75;;;3.80;99.90;;;;;;5073259;28;20028;-55
2021/11/27 01:12:03;;;;;;;26.05;15.45;;;3.80;99.90;;;;;;5073208;28;20063;-58
2021/11/27 01:14:29;;;;;;;22.20;14.35;;;3.70;99.90;;;;;;5073042;28;20028;-56
2021/11/27 01:17:04;;;;;;;22.98;14.55;;;3.70;99.90;;;;;;5086377;28;20145;-61
2021/11/27 01:19:30;;;;;;;23.65;14.80;;;3.80;99.90;;;;;;5093299;28;20506;-58
2021/11/27 01:22:08;;;;;;;24.92;15.05;;;3.80;99.90;;;;;;5083872;28;20103;-60
2021/11/27 01:24:34;;;;;;;21.63;13.88;;;3.70;99.90;;;;;;5078043;28;20058;-56
2021/11/27 01:27:00;;;;;;;24.00;14.80;;;3.70;99.90;;;;;;5075107;28;20499;-55
2021/11/27 01:29:26;;;;;;;27.83;15.55;;;3.60;99.90;;;;;;5093177;28;20063;-59
2021/11/27 01:31:52;;;;;;;22.05;13.75;;;3.50;99.90;;;;;;5093336;28;20465;-57
2021/11/27 01:34:18;;;;;;;24.27;14.48;;;3.50;99.90;;;;;;5092972;28;20123;-59
2021/11/27 01:36:44;;;;;;;23.50;15.25;;;3.40;99.90;;;;;;5093190;28;20064;-58
2021/11/27 01:39:10;;;;;;;22.98;13.48;;;3.50;99.90;;;;;;5092716;28;20056;-58
2021/11/27 01:41:36;;;;;;;22.52;14.63;;;3.50;99.90;;;;;;5088353;28;20086;-61
2021/11/27 01:44:04;;;;;;;23.27;15.55;;;3.50;99.90;;;;;;5072816;28;20380;-57
2021/11/27 01:46:30;;;;;;;20.80;12.98;;;3.50;99.90;;;;;;5072646;28;20028;-55
2021/11/27 01:48:56;;;;;;;22.75;13.85;;;3.60;99.90;;;;;;5072811;28;20174;-57
2021/11/27 01:51:23;;;;;;;19.95;13.82;;;3.70;99.90;;;;;;5072506;28;20121;-57
2021/11/27 01:53:56;;;;;;;24.17;14.07;;;3.70;99.90;;;;;;5073624;28;20032;-60
2021/11/27 01:56:27;;;;;;;22.88;14.10;;;3.70;99.90;;;;;;5072919;28;20044;-56
2021/11/27 01:58:53;;;;;;;25.67;14.20;;;3.70;99.90;;;;;;5054576;28;20032;-59
2021/11/27 02:01:22;;;;;;;20.23;12.27;;;3.70;99.90;;;;;;5071364;28;20032;-60
2021/11/27 02:03:49;;;;;;;18.95;12.80;;;3.70;99.90;;;;;;5055334;28;20090;-61
2021/11/27 02:06:17;;;;;;;20.98;12.50;;;3.70;99.90;;;;;;5072409;28;20028;-57
2021/11/27 02:08:45;;;;;;;23.42;14.52;;;3.80;99.80;;;;;;5072430;28;20119;-60
2021/11/27 02:11:13;;;;;;;22.85;14.10;;;3.70;99.90;;;;;;5072621;28;20510;-60
2021/11/27 02:13:39;;;;;;;22.35;13.13;;;3.70;99.90;;;;;;5072297;28;20040;-58
2021/11/27 02:16:05;;;;;;;19.58;12.60;;;3.80;99.90;;;;;;5072236;28;20101;-57
2021/11/27 02:18:30;;;;;;;20.38;14.02;;;3.70;99.90;;;;;;5072345;28;20029;-58
2021/11/27 02:21:06;;;;;;;18.75;12.70;;;3.70;99.90;;;;;;5071980;28;20032;-56
2021/11/27 02:23:32;;;;;;;20.02;12.60;;;3.70;99.90;;;;;;5072318;28;20033;-56
2021/11/27 02:26:04;;;;;;;21.40;13.32;;;3.80;99.90;;;;;;5087515;28;20031;-60
2021/11/27 02:28:34;;;;;;;20.85;12.70;;;3.80;99.90;;;;;;5052380;28;20025;-57
2021/11/27 02:31:01;;;;;;;21.33;13.85;;;3.90;99.90;;;;;;5052095;28;20032;-59
2021/11/27 02:33:27;;;;;;;20.60;13.45;;;3.90;99.90;;;;;;5051873;28;20041;-57
2021/11/27 02:35:53;;;;;;;22.13;13.50;;;3.90;99.90;;;;;;5052375;28;20025;-56
2021/11/27 02:38:18;;;;;;;22.55;13.77;;;3.90;99.90;;;;;;5051807;28;20035;-58
2021/11/27 02:40:45;;;;;;;24.20;13.57;;;3.90;99.90;;;;;;5052042;28;20025;-59
2021/11/27 02:43:10;;;;;;;20.77;12.88;;;3.90;99.90;;;;;;5069693;28;20028;-56
2021/11/27 02:45:36;;;;;;;21.00;13.80;;;3.90;99.90;;;;;;5071782;28;20111;-58
2021/11/27 02:48:02;;;;;;;21.13;13.32;;;3.90;99.90;;;;;;5071912;28;20041;-60
2021/11/27 02:50:28;;;;;;;22.77;13.20;;;3.80;99.90;;;;;;5071940;28;20484;-59
2021/11/27 02:52:54;;;;;;;21.45;14.20;;;3.80;99.90;;;;;;5072012;28;20050;-55
2021/11/27 02:55:19;;;;;;;23.92;13.60;;;3.80;99.90;;;;;;5072054;28;20039;-61
2021/11/27 02:57:45;;;;;;;22.05;15.07;;;3.70;99.90;;;;;;5071888;28;20441;-57
2021/11/27 03:00:17;;;;;;;21.00;13.50;;;3.80;99.90;;;;;;5071729;28;20075;-58
2021/11/27 03:02:44;;;;;;;22.38;14.27;;;3.70;99.90;;;;;;5071775;28;20040;-56
2021/11/27 03:05:09;;;;;;;19.88;13.55;;;3.70;99.90;;;;;;5073298;28;20036;-56
2021/11/27 03:07:35;;;;;;;21.13;13.52;;;3.60;99.90;;;;;;5091582;28;20028;-54
2021/11/27 03:10:01;;;;;;;21.60;12.95;;;3.70;99.90;;;;;;5092210;28;20040;-57
2021/11/27 03:12:27;;;;;;;22.67;14.23;;;3.70;99.90;;;;;;5092566;28;20047;-59
2021/11/27 03:14:53;;;;;;;24.55;14.77;;;3.70;99.90;;;;;;5077392;28;20028;-60
2021/11/27 03:17:19;;;;;;;20.80;13.60;;;3.70;99.90;;;;;;5095862;28;20043;-57
2021/11/27 03:19:45;;;;;;;20.92;13.75;;;3.70;99.90;;;;;;5095802;28;20110;-58
2021/11/27 03:22:13;;;;;;;22.00;13.27;;;3.70;99.90;;;;;;5084047;28;20033;-57
2021/11/27 03:24:39;;;;;;;23.02;13.93;;;3.70;99.90;;;;;;5081358;28;20525;-57
2021/11/27 03:27:06;;;;;;;21.88;13.73;;;3.60;99.90;;;;;;5095574;28;20399;-54
2021/11/27 03:29:33;;;;;;;20.50;13.38;;;3.60;99.90;;;;;;5095720;28;20582;-54
2021/11/27 03:32:02;;;;;;;22.27;12.98;;;3.70;99.90;;;;;;5095748;28;20040;-61
2021/11/27 03:34:29;;;;;;;23.38;13.63;;;3.80;99.90;;;;;;5095563;28;20115;-57
2021/11/27 03:36:54;;;;;;;21.67;13.85;;;3.80;99.90;;;;;;5095714;28;20045;-58
2021/11/27 03:39:20;;;;;;;23.23;13.77;;;3.80;99.90;;;;;;5095287;28;20028;-57
2021/11/27 03:41:46;;;;;;;24.05;14.02;;;3.80;99.90;;;;;;5089361;28;20036;-55
2021/11/27 03:44:12;;;;;;;20.65;12.88;;;3.80;99.90;;;;;;5057036;28;20440;-57
2021/11/27 03:46:37;;;;;;;20.33;13.23;;;3.80;99.90;;;;;;5075171;28;20028;-56
2021/11/27 03:49:03;;;;;;;20.17;12.90;;;3.80;99.90;;;;;;5056861;28;20040;-58
2021/11/27 03:51:29;;;;;;;21.02;13.73;;;3.80;99.90;;;;;;5073641;28;20029;-60
2021/11/27 03:53:55;;;;;;;22.88;14.30;;;3.80;99.90;;;;;;5074420;28;20403;-55
2021/11/27 03:56:27;;;;;;;19.05;13.23;;;3.80;99.90;;;;;;5075181;28;20040;-56
2021/11/27 03:58:55;;;;;;;21.10;12.45;;;3.80;99.90;;;;;;5074505;28;20395;-61
2021/11/27 04:01:23;;;;;;;23.92;13.65;;;3.80;99.90;;;;;;5056806;28;20013;-53
2021/11/27 04:03:51;;;;;;;24.88;14.38;;;3.80;99.90;;;;;;5074632;28;20032;-58
2021/11/27 04:06:18;;;;;;;21.75;13.27;;;3.70;99.90;;;;;;5074808;28;20523;-58
2021/11/27 04:08:45;;;;;;;23.25;13.35;;;3.80;99.90;;;;;;5057311;28;20072;-57
2021/11/27 04:11:11;;;;;;;21.10;12.20;;;3.80;99.90;;;;;;5074496;28;20071;-58
2021/11/27 04:13:37;;;;;;;20.70;12.40;;;3.70;99.90;;;;;;5057063;28;20036;-56
2021/11/27 04:16:04;;;;;;;19.98;12.77;;;3.70;99.90;;;;;;5057144;28;20046;-58
2021/11/27 04:18:30;;;;;;;18.55;12.70;;;3.80;99.90;;;;;;5074548;28;20051;-59
2021/11/27 04:20:56;;;;;;;19.25;12.95;;;3.80;99.90;;;;;;5074503;28;20021;-60
2021/11/27 04:23:22;;;;;;;23.63;12.68;;;3.80;99.90;;;;;;5074343;28;20032;-57
2021/11/27 04:25:47;;;;;;;20.33;12.05;;;3.80;99.90;;;;;;5088664;28;20111;-57
2021/11/27 04:28:13;;;;;;;21.98;13.00;;;3.80;99.90;;;;;;5077309;28;20040;-57
2021/11/27 04:30:40;;;;;;;21.90;13.80;;;3.90;99.90;;;;;;5077208;28;20032;-57
2021/11/27 04:33:06;;;;;;;20.23;13.73;;;3.80;99.90;;;;;;5094937;28;20411;-60
2021/11/27 04:35:33;;;;;;;21.83;13.23;;;3.80;99.90;;;;;;5094894;28;20035;-57
2021/11/27 04:38:00;;;;;;;23.40;13.00;;;3.80;99.90;;;;;;5094492;28;20032;-58
2021/11/27 04:40:26;;;;;;;22.85;14.48;;;3.80;99.90;;;;;;5094107;28;20051;-58
2021/11/27 04:42:52;;;;;;;19.80;13.05;;;3.90;99.90;;;;;;5079023;28;20021;-60
2021/11/27 04:45:19;;;;;;;20.65;13.35;;;3.80;99.90;;;;;;5082233;28;20032;-60
2021/11/27 04:47:45;;;;;;;23.38;14.38;;;3.90;99.90;;;;;;5094265;28;20040;-58
2021/11/27 04:50:12;;;;;;;22.17;14.07;;;3.80;99.90;;;;;;5094417;28;20028;-56
2021/11/27 04:52:38;;;;;;;23.00;13.98;;;3.80;99.90;;;;;;5094542;28;20111;-58
2021/11/27 04:55:08;;;;;;;21.95;13.70;;;3.80;99.90;;;;;;5074015;28;20114;-58
2021/11/27 04:57:34;;;;;;;22.27;14.05;;;3.80;99.90;;;;;;5089721;28;20138;-56
2021/11/27 05:00:00;;;;;;;24.45;15.00;;;3.80;99.90;;;;;;5073597;28;20543;-57
2021/11/27 05:02:26;;;;;;;22.38;14.00;;;3.80;99.90;;;;;;5074101;28;20029;-58
2021/11/27 05:04:52;;;;;;;23.15;13.98;;;3.80;99.90;;;;;;5074084;28;20111;-59
2021/11/27 05:07:17;;;;;;;24.25;14.23;;;3.70;99.90;;;;;;5055892;28;20506;-54
2021/11/27 05:09:43;;;;;;;21.77;14.68;;;3.80;99.90;;;;;;5073586;28;20047;-56
2021/11/27 05:12:09;;;;;;;22.98;14.30;;;3.90;99.90;;;;;;5073405;28;20388;-60
2021/11/27 05:14:35;;;;;;;21.00;14.20;;;3.90;99.90;;;;;;5073386;28;20056;-57
2021/11/27 05:17:00;;;;;;;24.05;15.35;;;3.90;99.90;;;;;;5073492;28;20045;-59
2021/11/27 05:19:26;;;;;;;21.92;13.77;;;3.90;99.90;;;;;;5072866;28;20041;-59
2021/11/27 05:21:52;;;;;;;22.02;14.60;;;3.90;99.90;;;;;;5073346;28;20404;-60
2021/11/27 05:24:18;;;;;;;24.20;15.38;;;3.90;99.90;;;;;;5075487;28;20373;-58
2021/11/27 05:26:43;;;;;;;26.00;16.10;;;3.90;99.90;;;;;;5075549;28;20027;-58
2021/11/27 05:29:09;;;;;;;22.52;14.48;;;3.90;99.90;;;;;;5093421;28;20460;-60
2021/11/27 05:31:35;;;;;;;23.63;14.13;;;3.90;99.90;;;;;;5091349;28;20046;-58
2021/11/27 05:36:36;;;;;;;26.17;16.27;;;3.90;99.90;;;;;;5093103;28;20036;-58
2021/11/27 05:39:03;;;;;;;22.92;14.25;;;3.90;99.90;;;;;;5092950;28;20032;-59
2021/11/27 05:41:29;;;;;;;25.20;15.35;;;3.90;99.90;;;;;;5089203;28;20033;-58
2021/11/27 05:43:56;;;;;;;25.02;15.65;;;4.00;99.90;;;;;;5072828;28;20032;-60
2021/11/27 05:46:22;;;;;;;23.95;15.52;;;4.00;99.90;;;;;;5073251;28;20040;-58
2021/11/27 05:48:47;;;;;;;24.50;14.75;;;4.00;99.90;;;;;;5073249;28;20484;-58
2021/11/27 05:51:13;;;;;;;23.98;15.43;;;4.10;99.90;;;;;;5054452;28;20481;-58
2021/11/27 05:53:39;;;;;;;22.80;14.70;;;4.10;99.90;;;;;;5072563;28;20472;-61
2021/11/27 05:56:05;;;;;;;25.25;15.25;;;4.10;99.90;;;;;;5072484;28;20042;-62
2021/11/27 05:58:31;;;;;;;23.10;15.98;;;4.10;99.90;;;;;;5072259;28;20071;-58
2021/11/27 06:01:02;;;;;;;24.25;16.27;;;4.10;99.90;;;;;;5077679;28;20403;-56
2021/11/27 06:03:29;;;;;;;26.42;16.23;;;4.20;99.90;;;;;;5072874;28;20584;-59
2021/11/27 06:05:54;;;;;;;25.52;16.08;;;4.20;99.90;;;;;;5092421;28;20035;-60
2021/11/27 06:08:20;;;;;;;23.58;15.20;;;4.20;99.90;;;;;;5090772;28;20035;-58
2021/11/27 06:10:46;;;;;;;24.70;15.27;;;4.30;99.90;;;;;;5092376;28;20086;-58
2021/11/27 06:13:12;;;;;;;24.60;16.63;;;4.30;99.90;;;;;;5091752;28;20036;-59
2021/11/27 06:15:37;;;;;;;23.17;14.98;;;4.30;99.90;;;;;;5067563;28;20033;-59
2021/11/27 06:18:03;;;;;;;27.58;16.60;;;4.30;99.90;;;;;;5034073;28;20045;-57
2021/11/27 06:20:29;;;;;;;22.88;15.35;;;4.30;99.90;;;;;;5033836;28;20040;-61
2021/11/27 06:22:54;;;;;;;20.77;14.43;;;4.30;99.90;;;;;;5069564;28;20491;-59
2021/11/27 06:25:20;;;;;;;25.30;15.93;;;4.20;99.90;;;;;;5065450;28;20647;-60
2021/11/27 06:27:46;;;;;;;27.10;16.77;;;4.20;99.90;;;;;;5092342;28;20488;-56
2021/11/27 06:30:12;;;;;;;26.98;15.63;;;4.30;99.90;;;;;;5092284;28;20024;-55
2021/11/27 06:32:37;;;;;;;27.40;16.13;;;4.30;99.90;;;;;;5092179;28;20491;-56
2021/11/27 06:35:04;;;;;;;26.45;16.00;;;4.30;99.90;;;;;;5092231;28;20028;-59
2021/11/27 06:37:29;;;;;;;25.83;15.57;;;4.30;99.90;;;;;;5092139;28;20078;-57
2021/11/27 06:39:59;;;;;;;27.05;15.85;;;4.20;99.90;;;;;;5091972;28;20039;-60
2021/11/27 06:42:25;;;;;;;24.17;16.05;;;4.30;99.90;;;;;;5082432;28;20021;-56
2021/11/27 06:44:51;;;;;;;22.60;14.55;;;4.30;99.90;;;;;;5057381;28;20688;-59
2021/11/27 06:47:19;;;;;;;23.67;15.95;;;4.40;99.90;;;;;;5091901;28;20538;-57
2021/11/27 06:49:46;;;;;;;23.17;14.60;;;4.40;99.90;;;;;;5098840;28;20089;-57
2021/11/27 06:52:13;;;;;;;24.48;15.05;;;4.40;99.80;;;;;;5099136;28;20470;-60
2021/11/27 06:54:40;;;;;;;23.98;15.10;;;4.40;99.90;;;;;;5097417;28;20044;-60
2021/11/27 06:57:06;;;;;;;22.50;14.23;;;4.50;99.80;;;;;;5099078;28;20027;-61
2021/11/27 06:59:32;;;;;;;26.30;14.68;;;4.50;99.80;;;;;;5078682;28;20075;-58
2021/11/27 07:01:58;;;;;;;24.63;15.85;;;4.50;99.80;;;;;;5074128;28;20075;-61
2021/11/27 07:04:24;;;;;;;25.80;16.27;;;4.50;99.80;;;;;;5078051;28;20021;-58
2021/11/27 07:06:50;;;;;;;25.50;15.77;;;4.50;99.70;;;;;;5077451;28;20044;-56
2021/11/27 07:09:15;;;;;;;24.70;14.93;;;4.60;99.90;;;;;;5059961;28;20410;-59
2021/11/27 07:11:42;;;;;;;27.13;16.70;;;4.60;99.70;;;;;;5088431;28;20089;-58
2021/11/27 07:14:07;;;;;;;26.23;16.42;;;4.60;99.50;;;;;;5080482;28;20032;-58
2021/11/27 07:16:33;;;;;;;24.30;15.88;;;4.60;99.60;;;;;;5098218;28;20044;-55
2021/11/27 07:18:59;;;;;;;24.60;14.85;;;4.60;99.60;;;;;;5087202;28;20119;-61
2021/11/27 07:21:25;;;;;;;28.17;16.48;;;4.60;99.60;;;;;;5085855;28;20152;-61
2021/11/27 07:23:51;;;;;;;22.58;15.32;;;4.60;99.70;;;;;;5077008;28;20116;-60
2021/11/27 07:26:18;;;;;;;22.88;14.98;;;4.60;99.60;;;;;;5079175;28;20029;-60
2021/11/27 07:28:43;;;;;;;23.63;15.75;;;4.60;99.70;;;;;;5059171;28;20024;-57
2021/11/27 07:31:09;;;;;;;25.40;16.05;;;4.60;99.70;;;;;;5080704;28;20098;-62
2021/11/27 07:33:35;;;;;;;25.27;15.63;;;4.70;99.60;;;;;;5078048;28;20369;-62
2021/11/27 07:36:01;;;;;;;25.67;16.23;;;4.60;99.60;;;;;;5078394;28;20450;-59
2021/11/27 07:38:26;;;;;;;26.40;17.55;;;4.70;99.70;;;;;;5078033;28;20372;-63
2021/11/27 07:40:52;;;;;;;26.95;18.50;;;4.60;99.60;;;;;;5075595;28;20104;-60
2021/11/27 07:43:18;;;;;;;26.27;15.95;;;4.60;99.70;;;;;;5077645;28;20025;-61
2021/11/27 07:45:43;;;;;;;24.90;16.13;;;4.70;99.60;;;;;;5077872;28;20056;-61
2021/11/27 07:48:09;;;;;;;21.05;14.90;;;4.70;99.70;;;;;;5078097;28;20086;-61
2021/11/27 07:50:35;;;;;;;29.60;17.00;;;4.70;99.70;;;;;;5077582;28;20441;-60
2021/11/27 07:53:01;;;;;;;23.63;16.73;;;4.70;99.70;;;;;;5077896;28;20492;-66
2021/11/27 07:55:28;;;;;;;24.80;16.25;;;4.70;99.70;;;;;;5088625;28;20046;-59
2021/11/27 07:57:55;;;;;;;24.92;16.02;;;4.70;99.70;;;;;;5090832;28;20681;-56
2021/11/27 08:00:21;;;;;;;28.30;17.00;;;4.70;99.70;;;;;;5074475;28;20028;-62
2021/11/27 08:02:47;;;;;;;28.80;19.02;;;4.70;99.60;;;;;;5056325;28;20040;-59
2021/11/27 08:05:13;;;;;;;25.73;16.98;;;4.70;99.80;;;;;;5074439;28;20036;-60
2021/11/27 08:07:38;;;;;;;24.80;16.45;;;4.90;99.70;;;;;;5074352;28;20021;-59
2021/11/27 08:10:07;;;;;;;26.48;17.35;;;4.90;99.60;;;;;;5074122;28;20373;-61
2021/11/27 08:12:33;;;;;;;25.33;16.17;;;4.90;99.60;;;;;;5056535;28;20035;-63
2021/11/27 08:14:58;;;;;;;27.13;16.90;;;4.90;99.50;;;;;;5074329;28;20032;-63
2021/11/27 08:17:24;;;;;;;25.70;17.52;;;4.90;99.60;;;;;;5074009;28;20098;-62
2021/11/27 08:19:50;;;;;;;27.48;18.42;;;4.90;99.60;;;;;;5073961;28;20021;-62
2021/11/27 08:22:15;;;;;;;28.08;17.65;;;5.00;99.50;;;;;;5052181;28;20025;-62
2021/11/27 08:24:41;;;;;;;25.08;17.48;;;5.10;99.40;;;;;;5074228;28;20480;-61
2021/11/27 08:27:07;;;;;;;24.35;16.15;;;5.10;99.40;;;;;;5072122;28;20020;-60
2021/11/27 08:29:33;;;;;;;27.65;19.25;;;5.10;99.40;;;;;;5073600;28;20132;-61
2021/11/27 08:31:59;;;;;;;25.02;17.02;;;5.10;99.40;;;;;;5073823;28;20463;-61
2021/11/27 08:34:25;;;;;;;26.65;17.25;;;5.10;99.30;;;;;;5071397;28;20037;-61
2021/11/27 08:36:51;;;;;;;23.17;15.48;;;5.10;99.30;;;;;;5057023;28;20036;-61
2021/11/27 08:39:16;;;;;;;25.13;16.77;;;5.20;99.30;;;;;;5074325;28;20075;-59
2021/11/27 08:41:43;;;;;;;24.73;17.13;;;5.10;99.20;;;;;;5074183;28;20057;-62
2021/11/27 08:44:09;;;;;;;25.75;17.58;;;5.10;99.30;;;;;;5038463;28;20040;-60
2021/11/27 08:46:36;;;;;;;22.33;15.93;;;5.10;99.40;;;;;;5074479;28;20047;-59
2021/11/27 08:49:02;;;;;;;25.05;17.25;;;5.20;99.90;;;;;;5073764;28;20047;-61
2021/11/27 08:51:28;;;;;;;25.10;17.65;;;5.30;99.90;;;;;;5056248;28;20044;-61
2021/11/27 08:53:54;;;;;;;38.47;24.10;;;5.40;99.90;;;;;;5082890;28;20042;-62
2021/11/27 08:56:20;;;;;;;40.33;25.80;;;5.40;99.90;;;;;;5080649;28;20118;-61
2021/11/27 08:58:45;;;;;;;26.17;18.25;;;5.30;99.50;;;;;;5068087;28;20047;-60
2021/11/27 09:01:12;;;;;;;30.00;18.65;;;5.30;99.70;;;;;;5063074;28;20033;-61
2021/11/27 09:03:42;;;;;;;28.90;17.98;;;5.20;99.90;;;;;;5073011;28;20495;-61
2021/11/27 09:06:08;;;;;;;23.63;16.50;;;5.10;99.90;;;;;;5071510;28;20025;-58
2021/11/27 09:08:37;;;;;;;25.70;16.77;;;5.10;99.90;;;;;;5073672;28;20020;-62
2021/11/27 09:11:03;;;;;;;25.70;17.52;;;5.20;99.90;;;;;;5055282;28;20063;-58
2021/11/27 09:13:29;;;;;;;27.25;17.23;;;5.20;99.90;;;;;;5084167;28;20063;-59
2021/11/27 09:15:55;;;;;;;25.13;16.55;;;5.20;99.90;;;;;;5068094;28;20056;-60
2021/11/27 09:18:21;;;;;;;28.85;18.30;;;5.30;99.90;;;;;;5072947;28;20107;-58
2021/11/27 09:20:46;;;;;;;26.67;17.42;;;5.30;99.90;;;;;;5054570;28;20032;-59
2021/11/27 09:23:12;;;;;;;28.27;17.55;;;5.30;99.90;;;;;;5073059;28;20036;-61
2021/11/27 09:25:38;;;;;;;30.75;20.90;;;5.30;99.90;;;;;;5074768;28;20094;-62
2021/11/27 09:28:04;;;;;;;26.52;18.65;;;5.40;99.90;;;;;;5072625;28;20035;-61
2021/11/27 09:30:32;;;;;;;26.92;18.75;;;5.40;99.90;;;;;;5072481;28;20036;-61
2021/11/27 09:32:58;;;;;;;27.13;17.80;;;5.40;99.90;;;;;;5072099;28;20036;-59
2021/11/27 09:35:25;;;;;;;25.10;17.35;;;5.50;99.90;;;;;;5054058;28;20025;-62
2021/11/27 09:37:50;;;;;;;27.85;18.20;;;5.60;99.90;;;;;;5072106;28;20036;-61
2021/11/27 09:40:17;;;;;;;26.77;17.23;;;5.60;99.90;;;;;;5055020;28;20025;-59
2021/11/27 09:42:49;;;;;;;26.83;18.55;;;5.60;99.90;;;;;;5041078;28;20044;-63
2021/11/27 09:48:46;;;;;;;22.38;15.52;;;5.60;99.90;;;;;;5071201;28;20024;-61
2021/11/27 09:51:12;;;;;;;27.75;18.63;;;5.60;99.70;;;;;;5072654;28;20056;-60
2021/11/27 09:53:39;;;;;;;29.70;19.38;;;5.60;99.70;;;;;;5034953;28;20540;-61
2021/11/27 09:56:06;;;;;;;38.95;19.92;;;5.70;99.70;;;;;;5066206;28;20029;-63
2021/11/27 09:58:32;;;;;;;35.88;18.45;;;5.70;99.50;;;;;;5065463;28;20029;-61
2021/11/27 10:01:03;;;;;;;28.27;16.88;;;5.80;99.30;;;;;;5052374;28;20127;-57
2021/11/27 10:03:30;;;;;;;33.13;18.02;;;5.80;99.20;;;;;;5037231;28;20074;-58
2021/11/27 10:05:57;;;;;;;23.45;17.35;;;5.70;99.30;;;;;;5066171;28;20037;-59
2021/11/27 10:08:23;;;;;;;25.80;17.48;;;5.70;99.20;;;;;;5064243;28;20059;-61
2021/11/27 10:10:49;;;;;;;24.40;16.55;;;5.70;99.30;;;;;;5071893;28;20062;-61
2021/11/27 10:13:23;;;;;;;26.08;16.77;;;5.70;99.30;;;;;;5071936;28;20025;-59
2021/11/27 10:15:52;;;;;;;26.95;17.15;;;5.70;99.20;;;;;;5053351;28;20119;-60
2021/11/27 10:18:23;;;;;;;23.05;16.33;;;5.70;99.30;;;;;;5071840;28;20044;-60
2021/11/27 10:21:18;;;;;;;21.23;16.63;;;5.80;99.10;;;;;;5062845;28;20020;-61
2021/11/27 10:23:46;;;;;;;22.58;15.82;;;5.70;99.20;;;;;;5062078;28;20070;-62
2021/11/27 10:26:40;;;;;;;23.02;16.05;;;5.70;99.30;;;;;;5044275;28;20079;-60
2021/11/27 10:29:30;;;;;;;23.45;15.50;;;5.80;99.20;;;;;;5061057;28;20488;-59
2021/11/27 10:32:20;;;;;;;20.88;15.13;;;5.90;99.40;;;;;;5045223;28;20075;-61
2021/11/27 10:34:50;;;;;;;23.58;16.02;;;5.90;99.50;;;;;;5058232;28;20028;-59
2021/11/27 10:37:40;;;;;;;25.75;17.58;;;5.90;99.80;;;;;;5061850;28;20542;-58
2021/11/27 10:40:09;;;;;;;20.75;14.48;;;6.00;99.70;;;;;;5062098;28;20020;-59
2021/11/27 10:42:35;;;;;;;19.88;14.18;;;5.80;99.80;;;;;;5058940;28;20052;-59
2021/11/27 10:45:18;;;;;;;21.13;14.93;;;5.60;99.90;;;;;;5061718;28;20607;-60
2021/11/27 10:47:44;;;;;;;18.17;13.82;;;5.60;99.90;;;;;;5053630;28;20021;-56
2021/11/27 10:50:18;;;;;;;18.20;14.02;;;5.50;99.90;;;;;;5059741;28;20029;-59
2021/11/27 10:52:44;;;;;;;19.58;14.35;;;5.50;99.90;;;;;;5064498;28;20070;-63
2021/11/27 10:55:24;;;;;;;23.15;14.63;;;5.40;99.90;;;;;;5057643;28;20029;-60
2021/11/27 10:57:55;;;;;;;19.02;13.65;;;5.50;99.90;;;;;;5066969;28;20038;-61
2021/11/27 11:00:28;;;;;;;22.20;14.98;;;5.60;99.90;;;;;;5052272;28;20522;-61
2021/11/27 11:02:55;;;;;;;30.10;20.07;;;5.60;99.90;;;;;;5069046;28;20082;-60
2021/11/27 11:05:28;;;;;;;24.75;16.70;;;5.70;99.90;;;;;;5057699;28;20274;-63
2021/11/27 11:07:56;;;;;;;20.42;14.73;;;5.70;99.90;;;;;;5077346;28;20032;-61
2021/11/27 11:10:30;;;;;;;21.73;15.20;;;5.70;99.90;;;;;;5071500;28;20040;-61
2021/11/27 11:13:16;;;;;;;20.55;14.27;;;5.80;99.90;;;;;;5073001;28;20032;-61
2021/11/27 11:15:47;;;;;;;20.85;15.05;;;5.80;99.90;;;;;;5055340;28;20504;-61
2021/11/27 11:18:18;;;;;;;20.17;14.38;;;5.80;99.90;;;;;;5073908;28;20036;-60
2021/11/27 11:20:48;;;;;;;20.50;15.25;;;5.90;99.90;;;;;;5036235;28;20112;-59
2021/11/27 11:23:24;;;;;;;21.75;15.07;;;6.00;99.90;;;;;;5067836;28;20029;-62
2021/11/27 11:26:02;;;;;;;28.00;16.50;;;6.00;99.90;;;;;;5053950;28;20417;-61
2021/11/27 11:28:31;;;;;;;20.98;14.05;;;6.20;99.90;;;;;;5052227;28;20507;-62
2021/11/27 11:31:01;;;;;;;19.27;14.25;;;6.30;99.90;;;;;;5072653;28;20124;-62
2021/11/27 11:33:28;;;;;;;18.80;13.05;;;6.40;99.90;;;;;;5055612;28;20465;-61
2021/11/27 11:35:54;;;;;;;19.05;14.00;;;6.40;99.90;;;;;;5075760;28;20032;-61
2021/11/27 11:38:20;;;;;;;20.80;14.95;;;6.30;99.90;;;;;;5076878;28;20089;-63
2021/11/27 11:40:47;;;;;;;19.30;13.73;;;6.30;99.90;;;;;;5040877;28;20056;-62
2021/11/27 11:43:14;;;;;;;18.50;13.60;;;6.20;99.90;;;;;;5057350;28;20028;-61
2021/11/27 11:45:40;;;;;;;17.85;13.77;;;6.10;99.90;;;;;;5075326;28;20040;-59
2021/11/27 11:48:06;;;;;;;17.73;12.60;;;6.00;99.90;;;;;;5074963;28;20020;-58
2021/11/27 11:50:42;;;;;;;18.75;12.85;;;6.10;99.90;;;;;;5072453;28;20384;-62
2021/11/27 11:53:51;;;;;;;16.30;11.25;;;6.00;99.90;;;;;;5057214;28;20036;-62
2021/11/27 11:56:19;;;;;;;14.60;11.45;;;5.90;99.90;;;;;;5075249;28;20028;-65
2021/11/27 11:58:49;;;;;;;15.35;11.52;;;5.80;99.90;;;;;;5074937;28;20062;-62
2021/11/27 12:01:21;;;;;;;18.85;14.02;;;5.80;99.90;;;;;;5074476;28;20067;-63
2021/11/27 12:03:49;;;;;;;14.80;10.30;;;5.70;99.90;;;;;;5057804;28;20392;-64
2021/11/27 12:06:28;;;;;;;12.95;9.65;;;5.60;99.90;;;;;;5075791;28;20025;-66
2021/11/27 12:08:59;;;;;;;13.82;10.02;;;5.40;99.90;;;;;;5056380;28;20487;-68
2021/11/27 12:11:47;;;;;;;12.93;9.50;;;5.20;99.90;;;;;;5041052;28;20470;-71
2021/11/27 12:14:22;;;;;;;14.90;10.60;;;5.20;99.90;;;;;;5056610;28;20025;-62
2021/11/27 12:17:17;;;;;;;14.32;10.32;;;5.00;99.90;;;;;;5074285;28;20037;-63
2021/11/27 12:19:55;;;;;;;13.30;9.02;;;5.10;99.90;;;;;;5055343;28;20036;-65
2021/11/27 12:22:30;;;;;;;14.10;9.85;;;5.10;99.90;;;;;;5056150;28;20511;-65
2021/11/27 12:25:11;;;;;;;12.18;9.00;;;5.00;99.90;;;;;;5082055;28;20016;-65
2021/11/27 12:28:14;;;;;;;11.05;8.80;;;5.00;99.90;;;;;;5094596;28;20028;-67
2021/11/27 12:30:46;;;;;;;12.18;9.32;;;4.90;99.90;;;;;;5076647;28;20055;-66
2021/11/27 12:33:43;;;;;;;13.13;8.80;;;4.90;99.90;;;;;;5094921;28;20020;-65
2021/11/27 12:39:16;;;;;;;14.38;9.35;;;4.80;99.90;;;;;;5094842;28;20028;-65
2021/11/27 12:41:45;;;;;;;12.77;9.30;;;4.80;99.90;;;;;;5059826;28;20115;-66
2021/11/27 12:44:23;;;;;;;10.93;7.70;;;4.90;99.90;;;;;;5094766;28;20020;-65
2021/11/27 12:46:51;;;;;;;10.30;7.95;;;4.70;99.90;;;;;;5058857;28;20077;-65
2021/11/27 12:49:32;;;;;;;9.98;7.38;;;4.60;99.90;;;;;;5094475;28;20030;-66
2021/11/27 12:52:10;;;;;;;12.05;8.20;;;4.60;99.90;;;;;;5075894;28;20031;-64